createdAt,value
2023-05-10T00:00:23.523Z,98598.67
2023-05-10T00:03:08.979Z,98593.71
2023-05-10T00:05:36.608Z,98592.08
2023-05-10T00:08:04.339Z,98590.61
2023-05-10T00:10:31.945Z,98590.34
2023-05-10T00:12:59.567Z,98587.65
2023-05-10T00:15:27.233Z,98586.02
2023-05-10T00:17:54.939Z,98583.85
2023-05-10T00:20:22.624Z,98585.38
2023-05-10T00:22:50.263Z,98582.73
2023-05-10T00:25:17.897Z,98580.75
2023-05-10T00:27:45.714Z,98580.36
2023-05-10T00:30:13.526Z,98575.63
2023-05-10T00:32:41.360Z,98577.65
2023-05-10T00:35:09.455Z,98576.92
2023-05-10T00:37:37.137Z,98574.11
2023-05-10T00:40:05.982Z,98571.99
2023-05-10T00:42:33.588Z,98570.08
2023-05-10T00:45:01.381Z,98568.83
2023-05-10T00:47:29.138Z,98572.80
2023-05-10T00:49:56.941Z,98570.46
2023-05-10T00:52:24.749Z,98569.54
2023-05-10T00:54:53.314Z,98566.83
2023-05-10T00:57:20.996Z,98564.80
2023-05-10T00:59:49.138Z,98568.02
2023-05-10T01:02:16.795Z,98565.13
2023-05-10T01:04:44.818Z,98562.58
2023-05-10T01:07:12.521Z,98563.83
2023-05-10T01:09:40.269Z,98559.14
2023-05-10T01:12:08.435Z,98555.38
2023-05-10T01:14:37.358Z,98560.28
2023-05-10T01:17:06.468Z,98558.76
2023-05-10T01:19:36.059Z,98558.11
2023-05-10T01:22:16.009Z,98554.86
2023-05-10T01:25:21.371Z,98552.45
2023-05-10T01:27:58.993Z,98550.34
2023-05-10T01:31:00.763Z,98551.94
2023-05-10T01:33:42.596Z,98553.73
2023-05-10T01:36:20.202Z,98554.80
2023-05-10T01:39:22.917Z,98555.50
2023-05-10T01:41:51.993Z,98550.08
2023-05-10T01:44:44.040Z,98548.02
2023-05-10T01:47:38.275Z,98550.63
2023-05-10T01:50:07.393Z,98545.77
2023-05-10T01:52:38.955Z,98548.26
2023-05-10T01:55:09.268Z,98544.33
2023-05-10T01:57:37.869Z,98539.56
2023-05-10T02:00:06.254Z,98538.27
2023-05-10T02:02:35.505Z,98538.39
2023-05-10T02:05:04.438Z,98533.77
2023-05-10T02:07:32.029Z,98535.95
2023-05-10T02:09:59.618Z,98534.98
2023-05-10T02:12:28.237Z,98529.52
2023-05-10T02:14:55.828Z,98531.14
2023-05-10T02:17:23.604Z,98529.99
2023-05-10T02:19:51.255Z,98526.23
2023-05-10T02:22:18.849Z,98524.92
2023-05-10T02:24:46.569Z,98520.98
2023-05-10T02:27:14.186Z,98520.89
2023-05-10T02:29:41.791Z,98517.69
2023-05-10T02:32:10.126Z,98516.56
2023-05-10T02:34:38.328Z,98514.75
2023-05-10T02:37:06.997Z,98514.52
2023-05-10T02:39:34.675Z,98514.30
2023-05-10T02:42:02.577Z,98514.92
2023-05-10T02:44:32.108Z,98520.23
2023-05-10T02:47:00.008Z,98519.43
2023-05-10T02:49:27.696Z,98519.86
2023-05-10T02:51:57.845Z,98520.13
2023-05-10T02:54:30.863Z,98519.50
2023-05-10T02:57:00.487Z,98516.83
2023-05-10T02:59:28.320Z,98520.76
2023-05-10T03:01:56.159Z,98521.04
2023-05-10T03:04:24.077Z,98522.54
2023-05-10T03:06:51.779Z,98520.04
2023-05-10T03:09:19.548Z,98521.25
2023-05-10T03:12:03.176Z,98518.66
2023-05-10T03:15:02.534Z,98519.15
2023-05-10T03:17:48.027Z,98516.24
2023-05-10T03:20:42.109Z,98515.62
2023-05-10T03:23:19.022Z,98509.95
2023-05-10T03:25:48.132Z,98514.34
2023-05-10T03:28:17.979Z,98513.05
2023-05-10T03:30:45.597Z,98514.35
2023-05-10T03:33:14.266Z,98515.52
2023-05-10T03:35:42.036Z,98511.52
2023-05-10T03:38:09.663Z,98506.48
2023-05-10T03:40:37.669Z,98511.16
2023-05-10T03:43:05.286Z,98511.14
2023-05-10T03:45:32.997Z,98510.57
2023-05-10T03:48:00.717Z,98509.84
2023-05-10T03:50:28.667Z,98511.05
2023-05-10T03:52:56.575Z,98509.54
2023-05-10T03:55:24.585Z,98506.95
2023-05-10T03:57:52.224Z,98507.88
2023-05-10T04:00:20.176Z,98508.10
2023-05-10T04:02:47.795Z,98510.05
2023-05-10T04:05:15.831Z,98508.94
2023-05-10T04:07:45.246Z,98505.41
2023-05-10T04:10:13.143Z,98510.52
2023-05-10T04:12:40.913Z,98506.48
2023-05-10T04:15:09.361Z,98504.34
2023-05-10T04:17:37.117Z,98506.17
2023-05-10T04:20:05.663Z,98507.42
2023-05-10T04:22:33.459Z,98510.55
2023-05-10T04:25:01.072Z,98508.77
2023-05-10T04:27:28.752Z,98509.44
2023-05-10T04:29:56.337Z,98510.56
2023-05-10T04:32:24.307Z,98515.37
2023-05-10T04:34:52.361Z,98511.42
2023-05-10T04:37:20.965Z,98509.28
2023-05-10T04:39:48.707Z,98511.15
2023-05-10T04:42:16.473Z,98510.94
2023-05-10T04:44:44.596Z,98514.04
2023-05-10T04:47:14.185Z,98514.02
2023-05-10T04:49:41.798Z,98514.70
2023-05-10T04:52:09.450Z,98512.95
2023-05-10T04:54:37.074Z,98514.04
2023-05-10T04:57:04.694Z,98514.24
2023-05-10T04:59:32.330Z,98513.22
2023-05-10T05:02:00.066Z,98509.79
2023-05-10T05:04:27.807Z,98508.27
2023-05-10T05:06:55.516Z,98506.80
2023-05-10T05:09:23.126Z,98504.34
2023-05-10T05:11:50.873Z,98501.63
2023-05-10T05:14:18.556Z,98500.94
2023-05-10T05:16:46.174Z,98499.68
2023-05-10T05:19:13.784Z,98499.42
2023-05-10T05:21:41.646Z,98498.29
2023-05-10T05:24:09.622Z,98501.63
2023-05-10T05:26:37.767Z,98496.27
2023-05-10T05:29:05.614Z,98498.88
2023-05-10T05:31:33.342Z,98497.55
2023-05-10T05:34:01.117Z,98496.17
2023-05-10T05:36:28.848Z,98495.47
2023-05-10T05:38:56.441Z,98490.58
2023-05-10T05:41:25.617Z,98493.19
2023-05-10T05:43:53.223Z,98492.49
2023-05-10T05:46:20.959Z,98493.36
2023-05-10T05:48:48.626Z,98495.27
2023-05-10T05:51:16.279Z,98494.56
2023-05-10T05:53:44.017Z,98493.67
2023-05-10T05:56:11.704Z,98492.61
2023-05-10T05:58:39.466Z,98490.15
2023-05-10T06:01:07.724Z,98496.22
2023-05-10T06:03:35.586Z,98489.02
2023-05-10T06:06:03.440Z,98485.48
2023-05-10T06:08:31.268Z,98487.19
2023-05-10T06:10:58.951Z,98483.33
2023-05-10T06:13:29.946Z,98487.66
2023-05-10T06:15:57.694Z,98486.37
2023-05-10T06:18:25.572Z,98487.53
2023-05-10T06:20:53.278Z,98491.68
2023-05-10T06:23:20.908Z,98491.27
2023-05-10T06:25:48.543Z,98494.70
2023-05-10T06:28:16.209Z,98493.77
2023-05-10T06:30:44.362Z,98489.86
2023-05-10T06:33:12.094Z,98493.10
2023-05-10T06:35:40.014Z,98490.58
2023-05-10T06:38:07.673Z,98496.61
2023-05-10T06:40:35.345Z,98496.71
2023-05-10T06:43:03.005Z,98493.48
2023-05-10T06:45:30.603Z,98490.61
2023-05-10T06:47:58.293Z,98492.23
2023-05-10T06:50:26.353Z,98490.39
2023-05-10T06:52:54.103Z,98491.01
2023-05-10T06:55:21.844Z,98491.08
2023-05-10T06:57:49.558Z,98493.77
2023-05-10T07:00:18.448Z,98491.41
2023-05-10T07:02:46.606Z,98486.73
2023-05-10T07:05:15.254Z,98483.81
2023-05-10T07:07:43.392Z,98478.42
2023-05-10T07:10:11.179Z,98476.71
2023-05-10T07:12:39.495Z,98472.04
2023-05-10T07:15:08.244Z,98469.27
2023-05-10T07:17:35.940Z,98467.21
2023-05-10T07:20:04.890Z,98467.59
2023-05-10T07:22:32.461Z,98467.60
2023-05-10T07:25:00.055Z,98470.62
2023-05-10T07:27:27.669Z,98467.46
2023-05-10T07:29:55.743Z,98465.72
2023-05-10T07:32:23.545Z,98465.23
2023-05-10T07:34:51.396Z,98461.01
2023-05-10T07:37:19.556Z,98457.32
2023-05-10T07:39:47.375Z,98455.55
2023-05-10T07:42:15.057Z,98459.92
2023-05-10T07:44:42.919Z,98459.73
2023-05-10T07:47:10.743Z,98456.89
2023-05-10T07:49:39.376Z,98459.16
2023-05-10T07:52:07.005Z,98452.80
2023-05-10T07:54:34.928Z,98448.91
2023-05-10T07:57:02.600Z,98458.01
2023-05-10T07:59:30.203Z,98453.58
2023-05-10T08:01:57.824Z,98448.80
2023-05-10T08:04:25.551Z,98452.45
2023-05-10T08:06:53.245Z,98454.73
2023-05-10T08:09:24.886Z,98455.23
2023-05-10T08:11:52.880Z,98457.66
2023-05-10T08:14:20.708Z,98453.73
2023-05-10T08:16:48.326Z,98448.76
2023-05-10T08:19:20.026Z,98449.58
2023-05-10T08:21:48.222Z,98448.63
2023-05-10T08:24:16.071Z,98445.59
2023-05-10T08:26:43.720Z,98443.95
2023-05-10T08:29:11.344Z,98446.02
2023-05-10T08:31:39.052Z,98446.11
2023-05-10T08:34:06.947Z,98445.32
2023-05-10T08:36:34.608Z,98448.39
2023-05-10T08:39:02.223Z,98444.08
2023-05-10T08:41:29.909Z,98442.63
2023-05-10T08:43:57.559Z,98446.39
2023-05-10T08:46:27.592Z,98442.94
2023-05-10T08:48:55.787Z,98444.77
2023-05-10T08:51:24.955Z,98442.73
2023-05-10T08:53:52.656Z,98444.18
2023-05-10T08:56:21.367Z,98441.75
2023-05-10T08:58:49.993Z,98446.54
2023-05-10T09:01:18.242Z,98444.42
2023-05-10T09:03:47.488Z,98441.88
2023-05-10T09:06:15.485Z,98443.22
2023-05-10T09:08:43.841Z,98435.75
2023-05-10T09:11:13.682Z,98438.36
2023-05-10T09:13:41.316Z,98433.34
2023-05-10T09:16:20.276Z,98436.71
2023-05-10T09:18:48.835Z,98433.73
2023-05-10T09:21:16.498Z,98436.73
2023-05-10T09:23:48.037Z,98436.95
2023-05-10T09:26:16.377Z,98435.42
2023-05-10T09:28:54.244Z,98427.91
2023-05-10T09:31:22.210Z,98429.03
2023-05-10T09:33:50.649Z,98433.95
2023-05-10T09:36:18.442Z,98431.48
2023-05-10T09:38:50.470Z,98426.21
2023-05-10T09:41:23.484Z,98435.08
2023-05-10T09:43:51.462Z,98435.95
2023-05-10T09:46:19.205Z,98433.85
2023-05-10T09:48:48.621Z,98431.11
2023-05-10T09:51:26.301Z,98434.20
2023-05-10T09:54:14.203Z,98430.96
2023-05-10T09:56:42.131Z,98426.64
2023-05-10T09:59:13.149Z,98420.15
2023-05-10T10:01:41.745Z,98422.46
2023-05-10T10:04:10.547Z,98424.94
2023-05-10T10:06:41.421Z,98417.68
2023-05-10T10:09:09.557Z,98416.04
2023-05-10T10:11:37.947Z,98415.69
2023-05-10T10:14:06.312Z,98405.60
2023-05-10T10:16:33.998Z,98405.09
2023-05-10T10:19:01.879Z,98404.39
2023-05-10T10:21:29.611Z,98395.85
2023-05-10T10:23:57.253Z,98400.44
2023-05-10T10:26:24.932Z,98403.27
2023-05-10T10:29:08.283Z,98401.41
2023-05-10T10:32:03.334Z,98397.71
2023-05-10T10:34:30.999Z,98398.73
2023-05-10T10:36:58.820Z,98396.31
2023-05-10T10:39:26.676Z,98387.64
2023-05-10T10:41:55.841Z,98391.01
2023-05-10T10:44:23.633Z,98388.63
2023-05-10T10:47:24.241Z,98376.84
2023-05-10T10:49:53.619Z,98385.40
2023-05-10T10:52:33.968Z,98384.28
2023-05-10T10:55:12.258Z,98382.84
2023-05-10T10:57:50.136Z,98383.60
2023-05-10T11:00:24.582Z,98382.10
2023-05-10T11:02:56.078Z,98382.89
2023-05-10T11:05:30.123Z,98374.25
2023-05-10T11:08:00.038Z,98367.42
2023-05-10T11:10:28.214Z,98368.08
2023-05-10T11:13:02.623Z,98372.61
2023-05-10T11:15:31.907Z,98364.63
2023-05-10T11:17:59.648Z,98369.96
2023-05-10T11:20:34.524Z,98366.02
2023-05-10T11:23:13.008Z,98360.75
2023-05-10T11:25:45.079Z,98362.96
2023-05-10T11:28:13.032Z,98360.18
2023-05-10T11:30:41.364Z,98358.69
2023-05-10T11:33:09.606Z,98359.27
2023-05-10T11:35:43.216Z,98356.16
2023-05-10T11:38:11.925Z,98357.56
2023-05-10T11:40:40.190Z,98356.83
2023-05-10T11:43:09.513Z,98349.55
2023-05-10T11:45:37.258Z,98345.14
2023-05-10T11:48:05.291Z,98344.35
2023-05-10T11:50:33.613Z,98350.80
2023-05-10T11:53:01.288Z,98348.05
2023-05-10T11:55:31.194Z,98347.61
2023-05-10T11:58:01.712Z,98345.14
2023-05-10T12:00:29.533Z,98344.61
2023-05-10T12:02:57.674Z,98343.35
2023-05-10T12:05:25.413Z,98339.52
2023-05-10T12:07:53.019Z,98335.98
2023-05-10T12:10:27.475Z,98336.95
2023-05-10T12:12:55.262Z,98340.58
2023-05-10T12:15:24.497Z,98341.34
2023-05-10T12:17:52.360Z,98346.05
2023-05-10T12:20:22.019Z,98343.73
2023-05-10T12:22:58.922Z,98343.38
2023-05-10T12:25:30.682Z,98340.42
2023-05-10T12:27:59.026Z,98338.77
2023-05-10T12:30:27.631Z,98333.86
2023-05-10T12:33:00.511Z,98330.82
2023-05-10T12:35:31.537Z,98330.86
2023-05-10T12:37:59.285Z,98334.48
2023-05-10T12:40:26.937Z,98325.86
2023-05-10T12:42:54.564Z,98325.81
2023-05-10T12:45:23.126Z,98328.27
2023-05-10T12:47:50.802Z,98324.28
2023-05-10T12:50:18.740Z,98323.01
2023-05-10T12:52:46.533Z,98317.56
2023-05-10T12:55:14.110Z,98317.50
2023-05-10T12:57:41.754Z,98321.98
2023-05-10T13:00:10.012Z,98318.97
2023-05-10T13:02:37.823Z,98317.61
2023-05-10T13:05:06.654Z,98313.20
2023-05-10T13:07:34.447Z,98304.06
2023-05-10T13:10:02.079Z,98301.19
2023-05-10T13:12:30.360Z,98301.17
2023-05-10T13:14:57.974Z,98305.84
2023-05-10T13:17:26.497Z,98302.67
2023-05-10T13:19:54.336Z,98303.80
2023-05-10T13:22:32.459Z,98305.79
2023-05-10T13:25:04.933Z,98302.80
2023-05-10T13:27:32.533Z,98306.19
2023-05-10T13:30:00.578Z,98299.42
2023-05-10T13:32:28.274Z,98296.63
2023-05-10T13:34:56.320Z,98293.77
2023-05-10T13:37:24.038Z,98292.52
2023-05-10T13:39:51.710Z,98294.85
2023-05-10T13:42:19.406Z,98284.77
2023-05-10T13:44:47.293Z,98286.19
2023-05-10T13:47:14.876Z,98283.23
2023-05-10T13:49:42.688Z,98276.44
2023-05-10T13:52:11.148Z,98279.95
2023-05-10T13:54:39.248Z,98276.63
2023-05-10T13:57:07.650Z,98272.60
2023-05-10T13:59:35.531Z,98267.98
2023-05-10T14:02:03.679Z,98273.05
2023-05-10T14:04:31.538Z,98270.92
2023-05-10T14:06:59.237Z,98266.83
2023-05-10T14:09:26.895Z,98265.77
2023-05-10T14:11:54.563Z,98263.92
2023-05-10T14:14:22.191Z,98260.16
2023-05-10T14:16:49.874Z,98263.88
2023-05-10T14:19:17.536Z,98261.52
2023-05-10T14:21:45.402Z,98265.83
2023-05-10T14:24:13.008Z,98263.98
2023-05-10T14:26:40.630Z,98266.11
2023-05-10T14:29:10.046Z,98263.88
2023-05-10T14:31:40.014Z,98256.37
2023-05-10T14:34:07.798Z,98255.22
2023-05-10T14:36:38.141Z,98248.85
2023-05-10T14:39:05.958Z,98247.36
2023-05-10T14:41:34.102Z,98247.88
2023-05-10T14:44:02.536Z,98250.07
2023-05-10T14:46:31.067Z,98248.38
2023-05-10T14:48:58.715Z,98252.55
2023-05-10T14:51:26.318Z,98249.98
2023-05-10T14:53:53.943Z,98252.04
2023-05-10T14:56:22.418Z,98248.69
2023-05-10T14:58:50.987Z,98251.32
2023-05-10T15:01:20.080Z,98255.15
2023-05-10T15:03:48.262Z,98253.79
2023-05-10T15:06:19.614Z,98255.58
2023-05-10T15:08:47.215Z,98250.10
2023-05-10T15:11:14.840Z,98254.50
2023-05-10T15:13:42.529Z,98254.71
2023-05-10T15:16:10.498Z,98258.54
2023-05-10T15:18:38.372Z,98256.53
2023-05-10T15:21:06.214Z,98256.85
2023-05-10T15:23:33.956Z,98254.92
2023-05-10T15:26:01.831Z,98258.46
2023-05-10T15:28:29.695Z,98254.93
2023-05-10T15:30:57.570Z,98259.10
2023-05-10T15:33:25.943Z,98255.05
2023-05-10T15:35:54.714Z,98254.05
2023-05-10T15:38:22.453Z,98254.59
2023-05-10T15:40:50.167Z,98253.75
2023-05-10T15:43:17.924Z,98253.48
2023-05-10T15:45:45.555Z,98257.77
2023-05-10T15:48:13.287Z,98258.29
2023-05-10T15:50:41.419Z,98256.67
2023-05-10T15:53:09.098Z,98257.58
2023-05-10T15:55:37.543Z,98255.06
2023-05-10T15:58:05.184Z,98257.72
2023-05-10T16:00:32.829Z,98257.62
2023-05-10T16:03:00.908Z,98261.92
2023-05-10T16:05:32.624Z,98258.17
2023-05-10T16:08:01.803Z,98257.31
2023-05-10T16:10:33.144Z,98259.48
2023-05-10T16:13:02.440Z,98257.35
2023-05-10T16:15:30.068Z,98256.87
2023-05-10T16:17:58.272Z,98259.30
2023-05-10T16:20:26.766Z,98260.47
2023-05-10T16:22:54.554Z,98264.12
2023-05-10T16:25:22.424Z,98262.06
2023-05-10T16:27:51.012Z,98261.48
2023-05-10T16:30:18.778Z,98261.11
2023-05-10T16:32:46.467Z,98263.64
2023-05-10T16:35:14.242Z,98260.17
2023-05-10T16:37:42.064Z,98265.80
2023-05-10T16:40:10.552Z,98263.23
2023-05-10T16:42:38.188Z,98263.50
2023-05-10T16:45:09.964Z,98263.29
2023-05-10T16:47:38.483Z,98264.84
2023-05-10T16:50:07.656Z,98266.86
2023-05-10T16:52:36.250Z,98270.53
2023-05-10T16:55:04.602Z,98268.45
2023-05-10T16:57:33.093Z,98275.10
2023-05-10T17:00:01.121Z,98271.98
2023-05-10T17:02:28.950Z,98278.88
2023-05-10T17:04:56.995Z,98281.66
2023-05-10T17:07:26.267Z,98283.92
2023-05-10T17:09:54.040Z,98284.58
2023-05-10T17:12:21.820Z,98287.36
2023-05-10T17:14:49.554Z,98286.75
2023-05-10T17:17:17.466Z,98289.87
2023-05-10T17:19:45.866Z,98292.11
2023-05-10T17:22:14.152Z,98289.40
2023-05-10T17:24:41.896Z,98291.86
2023-05-10T17:27:09.860Z,98293.92
2023-05-10T17:29:37.732Z,98296.96
2023-05-10T17:32:06.069Z,98293.79
2023-05-10T17:34:33.876Z,98295.41
2023-05-10T17:37:02.452Z,98298.09
2023-05-10T17:39:30.518Z,98301.92
2023-05-10T17:41:58.194Z,98306.48
2023-05-10T17:44:26.165Z,98305.91
2023-05-10T17:46:53.938Z,98308.73
2023-05-10T17:49:21.603Z,98314.13
2023-05-10T17:51:49.382Z,98317.17
2023-05-10T17:54:17.197Z,98316.79
2023-05-10T17:56:45.070Z,98322.80
2023-05-10T17:59:12.813Z,98330.05
2023-05-10T18:01:43.285Z,98329.96
2023-05-10T18:04:11.299Z,98331.15
2023-05-10T18:06:42.310Z,98334.95
2023-05-10T18:09:12.138Z,98339.61
2023-05-10T18:11:40.219Z,98338.09
2023-05-10T18:14:07.886Z,98338.90
2023-05-10T18:16:35.637Z,98342.53
2023-05-10T18:19:03.967Z,98341.04
2023-05-10T18:21:31.893Z,98343.43
2023-05-10T18:23:59.934Z,98349.88
2023-05-10T18:26:27.956Z,98354.85
2023-05-10T18:28:55.633Z,98355.73
2023-05-10T18:31:24.032Z,98354.48
2023-05-10T18:33:52.215Z,98354.86
2023-05-10T18:36:19.844Z,98359.47
2023-05-10T18:38:47.641Z,98363.88
2023-05-10T18:41:15.771Z,98368.47
2023-05-10T18:43:43.770Z,98371.27
2023-05-10T18:46:11.610Z,98376.69
2023-05-10T18:48:39.514Z,98383.32
2023-05-10T18:51:07.386Z,98382.38
2023-05-10T18:53:35.464Z,98391.95
2023-05-10T18:56:03.607Z,98392.93
2023-05-10T18:58:31.454Z,98398.31
2023-05-10T19:00:59.263Z,98399.11
2023-05-10T19:03:27.304Z,98401.48
2023-05-10T19:05:54.961Z,98399.64
2023-05-10T19:08:23.045Z,98401.63
2023-05-10T19:10:50.804Z,98407.15
2023-05-10T19:13:18.568Z,98411.58
2023-05-10T19:15:46.588Z,98412.70
2023-05-10T19:18:16.148Z,98414.50
2023-05-10T19:20:46.009Z,98415.77
2023-05-10T19:23:16.506Z,98415.29
2023-05-10T19:25:44.691Z,98417.11
2023-05-10T19:28:12.829Z,98421.33
2023-05-10T19:30:40.607Z,98423.14
2023-05-10T19:33:10.211Z,98421.95
2023-05-10T19:35:37.999Z,98423.92
2023-05-10T19:38:05.626Z,98423.96
2023-05-10T19:40:33.442Z,98427.33
2023-05-10T19:43:01.127Z,98425.27
2023-05-10T19:45:28.937Z,98423.70
2023-05-10T19:47:56.599Z,98424.77
2023-05-10T19:50:24.357Z,98428.83
2023-05-10T19:52:52.514Z,98426.39
2023-05-10T19:55:30.621Z,98426.75
2023-05-10T19:58:00.636Z,98426.60
2023-05-10T20:00:28.373Z,98431.34
2023-05-10T20:02:56.069Z,98428.71
2023-05-10T20:05:23.831Z,98429.25
2023-05-10T20:07:51.693Z,98430.67
2023-05-10T20:10:19.773Z,98426.07
2023-05-10T20:12:52.477Z,98426.77
2023-05-10T20:15:21.877Z,98432.56
2023-05-10T20:17:51.274Z,98432.22
2023-05-10T20:20:20.445Z,98434.32
2023-05-10T20:22:48.578Z,98430.80
2023-05-10T20:25:17.077Z,98428.34
2023-05-10T20:27:44.788Z,98435.52
2023-05-10T20:30:13.078Z,98430.80
2023-05-10T20:32:40.954Z,98433.23
2023-05-10T20:35:09.409Z,98428.85
2023-05-10T20:37:37.896Z,98427.79
2023-05-10T20:40:06.126Z,98427.95
2023-05-10T20:42:33.723Z,98431.98
2023-05-10T20:45:01.590Z,98430.91
2023-05-10T20:47:29.223Z,98432.66
2023-05-10T20:49:56.847Z,98432.81
2023-05-10T20:52:24.733Z,98430.70
2023-05-10T20:54:52.346Z,98431.92
2023-05-10T20:57:20.206Z,98432.61
2023-05-10T20:59:49.923Z,98436.11
2023-05-10T21:02:17.681Z,98435.74
2023-05-10T21:04:45.331Z,98438.88
2023-05-10T21:07:13.038Z,98435.38
2023-05-10T21:09:40.630Z,98439.91
2023-05-10T21:12:09.166Z,98439.90
2023-05-10T21:14:36.789Z,98440.94
2023-05-10T21:17:04.476Z,98445.30
2023-05-10T21:19:32.174Z,98444.42
2023-05-10T21:21:59.856Z,98447.38
2023-05-10T21:24:27.534Z,98444.39
2023-05-10T21:26:55.141Z,98449.28
2023-05-10T21:29:22.736Z,98446.83
2023-05-10T21:31:50.603Z,98448.55
2023-05-10T21:34:18.318Z,98447.11
2023-05-10T21:36:45.995Z,98446.20
2023-05-10T21:39:13.851Z,98448.62
2023-05-10T21:41:42.139Z,98451.39
2023-05-10T21:44:09.822Z,98449.11
2023-05-10T21:46:37.426Z,98446.98
2023-05-10T21:49:05.109Z,98447.66
2023-05-10T21:51:32.708Z,98448.52
2023-05-10T21:54:00.301Z,98448.33
2023-05-10T21:56:27.914Z,98447.24
2023-05-10T21:58:55.767Z,98447.91
2023-05-10T22:01:23.487Z,98450.84
2023-05-10T22:03:51.240Z,98446.08
2023-05-10T22:06:18.907Z,98447.45
2023-05-10T22:08:46.480Z,98450.02
2023-05-10T22:11:14.094Z,98450.50
2023-05-10T22:13:41.684Z,98453.77
2023-05-10T22:16:09.304Z,98456.70
2023-05-10T22:18:36.966Z,98453.19
2023-05-10T22:21:04.783Z,98456.83
2023-05-10T22:23:32.484Z,98459.24
2023-05-10T22:26:02.700Z,98458.17
2023-05-10T22:28:30.471Z,98454.83
2023-05-10T22:30:58.191Z,98461.27
2023-05-10T22:33:25.898Z,98458.79
2023-05-10T22:35:53.559Z,98463.51
2023-05-10T22:38:21.506Z,98460.48
2023-05-10T22:40:49.159Z,98465.02
2023-05-10T22:43:17.259Z,98466.38
2023-05-10T22:45:44.864Z,98463.92
2023-05-10T22:48:12.690Z,98466.66
2023-05-10T22:50:40.285Z,98470.33
2023-05-10T22:53:08.051Z,98472.20
2023-05-10T22:55:36.514Z,98478.83
2023-05-10T22:58:04.098Z,98475.13
2023-05-10T23:00:31.788Z,98476.48
2023-05-10T23:03:00.010Z,98480.83
2023-05-10T23:05:27.977Z,98481.34
2023-05-10T23:07:55.581Z,98479.72
2023-05-10T23:10:23.385Z,98476.73
2023-05-10T23:12:51.461Z,98480.52
2023-05-10T23:15:19.074Z,98481.89
2023-05-10T23:17:47.087Z,98484.65
2023-05-10T23:20:16.172Z,98484.79
2023-05-10T23:22:44.168Z,98484.95
2023-05-10T23:25:11.814Z,98486.48
2023-05-10T23:27:39.404Z,98482.42
2023-05-10T23:30:07.982Z,98478.67
2023-05-10T23:32:35.883Z,98480.35
2023-05-10T23:35:03.759Z,98480.69
2023-05-10T23:37:31.375Z,98482.23
2023-05-10T23:39:59.104Z,98480.98
2023-05-10T23:42:26.895Z,98484.81
2023-05-10T23:44:54.673Z,98484.29
2023-05-10T23:47:22.297Z,98480.63
2023-05-10T23:49:50.314Z,98481.48
2023-05-10T23:52:17.955Z,98484.98
2023-05-10T23:54:46.043Z,98485.14
2023-05-10T23:57:13.943Z,98481.27
2023-05-10T23:59:41.559Z,98483.52
